Time;durP1;ratioP1;P1;durP2;ratioP2;P2;SDS_P1;SDS_P2;PMS_P1;PMS_P2;Temp;Humidity;BMP_temperature;BMP_pressure;BME280_temperature;BME280_humidity;BME280_pressure;Samples;Min_cycle;Max_cycle;Signal;HPM_P1;HPM_P2
2023/08/21 07:47:15;;;;;;;;;38.50;33.00;;;;;;;;5101489;27;13728;-71
2023/08/21 07:49:40;;;;;;;;;27.00;27.00;;;;;;;;5104434;28;9648;-70
2023/08/21 07:52:06;;;;;;;;;27.33;25.67;;;;;;;;5103978;28;8823;-70
2023/08/21 07:54:31;;;;;;;;;20.00;20.00;;;;;;;;5101433;28;8811;-73
2023/08/21 07:56:56;;;;;;;;;25.33;25.33;;;;;;;;5102635;28;8804;-73
2023/08/21 07:59:22;;;;;;;;;17.67;16.00;;;;;;;;5102347;28;8819;-71
2023/08/21 08:01:47;;;;;;;;;25.00;25.00;;;;;;;;5104707;28;8820;-73
2023/08/21 08:04:12;;;;;;;;;25.33;24.33;;;;;;;;5104427;28;8816;-73
2023/08/21 08:06:37;;;;;;;;;22.33;21.67;;;;;;;;5102193;28;8835;-74
2023/08/21 08:09:05;;;;;;;;;22.67;21.67;;;;;;;;5103787;28;8792;-74
2023/08/21 08:11:31;;;;;;;;;22.50;21.75;;;;;;;;5102789;28;8797;-73
2023/08/21 08:13:56;;;;;;;;;19.67;19.67;;;;;;;;5098122;28;8812;-74
2023/08/21 08:16:21;;;;;;;;;23.00;23.00;;;;;;;;5101831;28;9000;-73
2023/08/21 08:18:47;;;;;;;;;23.33;21.33;;;;;;;;5102511;28;8799;-73
2023/08/21 08:21:12;;;;;;;;;20.25;20.25;;;;;;;;5103797;28;8814;-73
2023/08/21 08:23:38;;;;;;;;;24.00;21.50;;;;;;;;5103825;28;8957;-73
2023/08/21 08:26:03;;;;;;;;;19.25;19.25;;;;;;;;5104038;28;8843;-74
2023/08/21 08:28:28;;;;;;;;;20.25;19.75;;;;;;;;5103743;28;8950;-74
2023/08/21 08:30:54;;;;;;;;;18.50;17.25;;;;;;;;5103796;28;8880;-74
2023/08/21 08:33:19;;;;;;;;;19.25;19.00;;;;;;;;5103391;28;8895;-73
2023/08/21 08:35:44;;;;;;;;;18.75;18.00;;;;;;;;5103418;28;8800;-74
2023/08/21 08:38:10;;;;;;;;;20.00;20.00;;;;;;;;5103039;28;9818;-74
2023/08/21 08:40:37;;;;;;;;;17.75;17.75;;;;;;;;5104191;28;8807;-73
2023/08/21 08:43:05;;;;;;;;;18.20;16.80;;;;;;;;5104649;28;8836;-80
2023/08/21 08:45:31;;;;;;;;;18.80;18.80;;;;;;;;5104605;28;8835;-78
2023/08/21 08:47:59;;;;;;;;;19.60;18.80;;;;;;;;5104330;28;8838;-79
2023/08/21 08:50:24;;;;;;;;;18.00;17.60;;;;;;;;5103752;28;8816;-77
2023/08/21 08:52:50;;;;;;;;;19.00;19.00;;;;;;;;5103845;28;8835;-77
2023/08/21 08:55:15;;;;;;;;;18.25;18.25;;;;;;;;5102957;28;9061;-78
2023/08/21 08:57:40;;;;;;;;;18.75;18.75;;;;;;;;5095568;28;8788;-76
2023/08/21 09:00:06;;;;;;;;;17.75;17.75;;;;;;;;5089676;28;8942;-72
2023/08/21 09:02:32;;;;;;;;;19.50;18.75;;;;;;;;5089424;28;8962;-75
2023/08/21 09:04:57;;;;;;;;;20.25;18.50;;;;;;;;5089621;28;8811;-75
2023/08/21 09:07:23;;;;;;;;;19.50;18.25;;;;;;;;5089953;28;8796;-77
2023/08/21 09:09:49;;;;;;;;;18.50;18.50;;;;;;;;5089073;28;8815;-77
2023/08/21 09:12:15;;;;;;;;;17.20;16.80;;;;;;;;5087123;28;8807;-77
2023/08/21 09:14:41;;;;;;;;;18.50;18.50;;;;;;;;5089152;28;8811;-75
2023/08/21 09:17:07;;;;;;;;;18.20;17.20;;;;;;;;5090174;28;8818;-77
2023/08/21 09:19:32;;;;;;;;;17.25;17.25;;;;;;;;5089898;28;8816;-76
2023/08/21 09:21:58;;;;;;;;;16.50;16.25;;;;;;;;5089744;28;8804;-76
2023/08/21 09:24:23;;;;;;;;;18.50;18.50;;;;;;;;5089812;28;8871;-75
2023/08/21 09:26:49;;;;;;;;;19.75;18.50;;;;;;;;5090028;28;8942;-71
2023/08/21 09:29:14;;;;;;;;;18.40;17.80;;;;;;;;5090065;28;8784;-74
2023/08/21 09:31:39;;;;;;;;;17.00;16.75;;;;;;;;5089322;28;8824;-77
2023/08/21 09:34:05;;;;;;;;;15.75;15.75;;;;;;;;5088806;28;9572;-81
2023/08/21 09:36:30;;;;;;;;;15.25;15.25;;;;;;;;5090291;28;8846;-75
2023/08/21 09:38:56;;;;;;;;;18.50;18.50;;;;;;;;5089617;28;8891;-75
2023/08/21 09:41:22;;;;;;;;;18.00;17.50;;;;;;;;5090948;28;8804;-78
2023/08/21 09:43:47;;;;;;;;;17.20;17.20;;;;;;;;5089670;28;8899;-76
2023/08/21 09:46:16;;;;;;;;;18.50;18.00;;;;;;;;5087336;28;8944;-75
2023/08/21 09:48:43;;;;;;;;;16.80;16.20;;;;;;;;5079412;28;8830;-78
2023/08/21 09:51:09;;;;;;;;;17.60;17.60;;;;;;;;5068935;28;8823;-79
2023/08/21 09:53:35;;;;;;;;;18.00;18.00;;;;;;;;5068789;28;9059;-79
2023/08/21 09:56:03;;;;;;;;;18.00;17.25;;;;;;;;5067108;28;8940;-78
2023/08/21 09:58:28;;;;;;;;;18.80;18.80;;;;;;;;5068347;28;8838;-78
2023/08/21 10:00:57;;;;;;;;;18.75;18.25;;;;;;;;5068671;28;8817;-80
2023/08/21 10:03:22;;;;;;;;;17.40;16.80;;;;;;;;5067240;28;9091;-86
2023/08/21 10:05:48;;;;;;;;;19.25;18.50;;;;;;;;5084130;28;8930;-76
2023/08/21 10:08:15;;;;;;;;;17.50;17.50;;;;;;;;5088402;28;8851;-81
2023/08/21 10:10:40;;;;;;;;;17.00;16.00;;;;;;;;5088231;28;8788;-81
2023/08/21 10:13:08;;;;;;;;;17.00;17.00;;;;;;;;5088826;28;8827;-81
2023/08/21 10:15:34;;;;;;;;;15.60;15.20;;;;;;;;5088354;28;9702;-78
2023/08/21 10:18:18;;;;;;;;;15.20;15.20;;;;;;;;5088700;28;8810;-76
2023/08/21 10:20:44;;;;;;;;;14.20;13.00;;;;;;;;5089225;28;8892;-72
2023/08/21 10:23:09;;;;;;;;;17.25;16.00;;;;;;;;5088869;28;9861;-75
2023/08/21 10:25:41;;;;;;;;;15.00;13.25;;;;;;;;5089227;28;8800;-76
2023/08/21 10:28:06;;;;;;;;;13.60;13.60;;;;;;;;5087363;28;9007;-76
2023/08/21 10:30:31;;;;;;;;;15.00;14.50;;;;;;;;5088722;28;8792;-75
2023/08/21 10:32:58;;;;;;;;;14.75;14.75;;;;;;;;5088609;28;8776;-74
2023/08/21 10:35:24;;;;;;;;;13.60;13.60;;;;;;;;5088108;28;8885;-74
2023/08/21 10:38:06;;;;;;;;;16.00;16.00;;;;;;;;5088637;28;8903;-74
2023/08/21 10:40:32;;;;;;;;;17.00;17.00;;;;;;;;5088049;28;8920;-72
2023/08/21 10:42:58;;;;;;;;;16.80;16.80;;;;;;;;5085257;28;8827;-73
2023/08/21 10:45:23;;;;;;;;;15.50;15.50;;;;;;;;5088758;28;8936;-74
2023/08/21 10:47:50;;;;;;;;;17.00;16.75;;;;;;;;5088815;28;8818;-74
2023/08/21 10:50:15;;;;;;;;;16.60;15.00;;;;;;;;5087023;28;8887;-75
2023/08/21 10:52:43;;;;;;;;;14.50;14.50;;;;;;;;5087747;28;8804;-72
2023/08/21 10:55:11;;;;;;;;;15.80;15.20;;;;;;;;5088273;28;8800;-71
2023/08/21 10:57:37;;;;;;;;;17.40;16.20;;;;;;;;5088220;28;8826;-72
2023/08/21 11:00:09;;;;;;;;;13.75;13.75;;;;;;;;5087839;28;8807;-71
2023/08/21 11:02:35;;;;;;;;;13.80;13.20;;;;;;;;5087846;28;8784;-73
2023/08/21 11:05:03;;;;;;;;;13.60;13.20;;;;;;;;5088124;28;8808;-73
2023/08/21 11:07:28;;;;;;;;;15.60;14.60;;;;;;;;5087220;28;8819;-71
2023/08/21 11:09:54;;;;;;;;;15.50;15.50;;;;;;;;5087189;28;8905;-72
2023/08/21 11:12:20;;;;;;;;;15.50;13.75;;;;;;;;5085952;28;8807;-72
2023/08/21 11:14:46;;;;;;;;;12.40;12.40;;;;;;;;5087559;28;8793;-74
2023/08/21 11:17:12;;;;;;;;;12.25;12.00;;;;;;;;5087227;28;8993;-78
2023/08/21 11:19:37;;;;;;;;;15.25;14.00;;;;;;;;5085402;28;8939;-77
2023/08/21 11:22:06;;;;;;;;;14.75;14.75;;;;;;;;5086967;28;8812;-76
2023/08/21 11:24:31;;;;;;;;;15.00;14.80;;;;;;;;5084814;28;12292;-74
2023/08/21 11:26:57;;;;;;;;;15.50;15.50;;;;;;;;5086738;28;8950;-72
2023/08/21 11:29:22;;;;;;;;;13.50;13.50;;;;;;;;5086768;28;8828;-73
2023/08/21 11:31:48;;;;;;;;;14.25;13.75;;;;;;;;5086889;28;8816;-71
2023/08/21 11:34:18;;;;;;;;;15.50;15.50;;;;;;;;5085913;28;8808;-70
2023/08/21 11:36:43;;;;;;;;;13.80;13.00;;;;;;;;5086990;28;8831;-74
2023/08/21 11:39:08;;;;;;;;;12.50;12.50;;;;;;;;5085508;28;8882;-75
2023/08/21 11:41:52;;;;;;;;;13.00;13.00;;;;;;;;5087421;28;8820;-74
2023/08/21 11:44:17;;;;;;;;;13.60;13.60;;;;;;;;5087448;28;8875;-73
2023/08/21 11:46:43;;;;;;;;;14.25;12.75;;;;;;;;5087581;28;8828;-77
2023/08/21 11:49:08;;;;;;;;;13.00;12.75;;;;;;;;5087338;28;8807;-77
2023/08/21 11:51:39;;;;;;;;;14.50;14.50;;;;;;;;5087082;28;8811;-79
2023/08/21 11:54:06;;;;;;;;;13.20;13.20;;;;;;;;5086389;28;8969;-79
2023/08/21 11:56:31;;;;;;;;;13.40;12.60;;;;;;;;5085256;28;8915;-78
2023/08/21 11:58:59;;;;;;;;;11.00;11.00;;;;;;;;5085514;28;8807;-78
2023/08/21 12:01:24;;;;;;;;;13.80;13.00;;;;;;;;5085938;28;8947;-78
2023/08/21 12:03:54;;;;;;;;;13.25;12.50;;;;;;;;5085851;28;8923;-75
2023/08/21 12:06:19;;;;;;;;;14.00;12.80;;;;;;;;5085305;28;9649;-72
2023/08/21 12:08:45;;;;;;;;;15.25;14.00;;;;;;;;5085952;28;8800;-73
2023/08/21 12:11:11;;;;;;;;;15.75;14.25;;;;;;;;5087049;28;8824;-75
2023/08/21 12:13:36;;;;;;;;;12.80;12.80;;;;;;;;5086725;28;8819;-74
2023/08/21 12:16:02;;;;;;;;;12.25;12.25;;;;;;;;5086980;28;8856;-72
2023/08/21 12:18:27;;;;;;;;;15.75;13.75;;;;;;;;5082369;28;8952;-72
2023/08/21 12:20:52;;;;;;;;;12.00;11.50;;;;;;;;5086751;28;8820;-72
2023/08/21 12:23:17;;;;;;;;;13.00;13.00;;;;;;;;5086460;28;8812;-72
2023/08/21 12:25:43;;;;;;;;;14.25;14.25;;;;;;;;5086998;28;8804;-72
2023/08/21 12:28:08;;;;;;;;;14.00;12.75;;;;;;;;5086808;28;8900;-74
2023/08/21 12:30:34;;;;;;;;;13.50;13.50;;;;;;;;5087111;28;8812;-74
2023/08/21 12:33:00;;;;;;;;;11.50;10.50;;;;;;;;5087404;28;8950;-73
2023/08/21 12:35:25;;;;;;;;;12.50;12.50;;;;;;;;5088868;28;8912;-73
2023/08/21 12:37:50;;;;;;;;;13.75;12.50;;;;;;;;5090231;28;8803;-73
2023/08/21 12:40:16;;;;;;;;;12.25;12.25;;;;;;;;5090793;28;8819;-73
2023/08/21 12:42:41;;;;;;;;;12.50;12.50;;;;;;;;5090571;28;8800;-74
2023/08/21 12:45:06;;;;;;;;;16.00;14.00;;;;;;;;5089789;28;8807;-74
2023/08/21 12:47:33;;;;;;;;;12.75;12.25;;;;;;;;5089665;28;8961;-74
2023/08/21 12:49:58;;;;;;;;;12.20;12.20;;;;;;;;5090185;28;10192;-73
2023/08/21 12:52:26;;;;;;;;;12.25;11.75;;;;;;;;5089781;28;8799;-73
2023/08/21 12:54:51;;;;;;;;;14.20;14.20;;;;;;;;5086683;28;8811;-72
2023/08/21 12:57:17;;;;;;;;;13.75;13.75;;;;;;;;5087611;28;9063;-72
2023/08/21 12:59:42;;;;;;;;;14.25;14.25;;;;;;;;5086259;28;8873;-73
2023/08/21 13:02:08;;;;;;;;;14.25;14.25;;;;;;;;5089175;28;9604;-71
2023/08/21 13:04:33;;;;;;;;;14.67;14.67;;;;;;;;5089152;28;8929;-72
2023/08/21 13:06:58;;;;;;;;;11.75;11.75;;;;;;;;5088931;28;8812;-72
2023/08/21 13:09:25;;;;;;;;;13.50;13.50;;;;;;;;5089601;28;8808;-72
2023/08/21 13:11:50;;;;;;;;;13.60;12.20;;;;;;;;5089119;28;8807;-72
2023/08/21 13:14:15;;;;;;;;;13.25;13.25;;;;;;;;5090343;28;8807;-70
2023/08/21 13:16:41;;;;;;;;;13.75;13.75;;;;;;;;5090034;28;8800;-73
2023/08/21 13:19:07;;;;;;;;;16.75;14.75;;;;;;;;5093809;28;9546;-72
2023/08/21 13:21:32;;;;;;;;;14.75;14.75;;;;;;;;5091091;28;8808;-73
2023/08/21 13:23:57;;;;;;;;;14.00;13.50;;;;;;;;5090150;28;8807;-70
2023/08/21 13:26:25;;;;;;;;;13.25;13.25;;;;;;;;5089556;28;8804;-74
2023/08/21 13:28:50;;;;;;;;;16.00;15.00;;;;;;;;5089436;28;8910;-74
2023/08/21 13:31:16;;;;;;;;;14.00;13.00;;;;;;;;5090203;28;8804;-72
2023/08/21 13:33:49;;;;;;;;;13.00;13.00;;;;;;;;5089258;28;8800;-80
2023/08/21 13:36:14;;;;;;;;;16.25;16.25;;;;;;;;5090376;28;8950;-76
2023/08/21 13:38:40;;;;;;;;;13.75;13.00;;;;;;;;5090753;28;8914;-80
2023/08/21 13:41:06;;;;;;;;;13.75;13.75;;;;;;;;5090575;28;8832;-80
2023/08/21 13:43:31;;;;;;;;;15.50;15.50;;;;;;;;5090174;28;8822;-80
2023/08/21 13:45:57;;;;;;;;;12.25;12.00;;;;;;;;5090280;28;8823;-78
2023/08/21 13:48:22;;;;;;;;;13.50;13.25;;;;;;;;5089843;28;8820;-72
2023/08/21 13:50:47;;;;;;;;;14.50;14.25;;;;;;;;5090065;28;9794;-73
2023/08/21 13:53:12;;;;;;;;;14.50;14.00;;;;;;;;5087472;28;8907;-73
2023/08/21 13:55:38;;;;;;;;;13.25;13.25;;;;;;;;5088441;28;8912;-74
2023/08/21 13:58:03;;;;;;;;;16.00;16.00;;;;;;;;5089014;28;8881;-75
2023/08/21 14:00:28;;;;;;;;;12.75;12.50;;;;;;;;5087936;28;8832;-75
2023/08/21 14:02:54;;;;;;;;;17.33;16.00;;;;;;;;5089440;28;8812;-71
2023/08/21 14:05:19;;;;;;;;;14.50;13.25;;;;;;;;5088139;28;8834;-73
2023/08/21 14:07:44;;;;;;;;;17.33;16.00;;;;;;;;5088911;28;8807;-69
2023/08/21 14:10:10;;;;;;;;;13.33;13.33;;;;;;;;5082390;28;8839;-71
2023/08/21 14:12:35;;;;;;;;;14.50;14.50;;;;;;;;5089881;28;9526;-71
2023/08/21 14:15:00;;;;;;;;;16.00;14.00;;;;;;;;5088845;28;8893;-72
2023/08/21 14:17:26;;;;;;;;;16.75;15.25;;;;;;;;5087020;28;8812;-72
2023/08/21 14:19:51;;;;;;;;;17.00;16.33;;;;;;;;5089109;28;8885;-72
2023/08/21 14:22:17;;;;;;;;;15.67;15.67;;;;;;;;5087807;28;8819;-73
2023/08/21 14:24:42;;;;;;;;;16.00;14.67;;;;;;;;5086047;28;8808;-72
2023/08/21 14:27:07;;;;;;;;;14.33;14.33;;;;;;;;5086801;28;8819;-74
2023/08/21 14:29:32;;;;;;;;;15.00;13.75;;;;;;;;5087694;28;8927;-70
2023/08/21 14:31:59;;;;;;;;;15.00;14.00;;;;;;;;5086208;28;8828;-70
2023/08/21 14:34:25;;;;;;;;;15.00;14.60;;;;;;;;5088114;28;8811;-69
2023/08/21 14:36:54;;;;;;;;;9.00;9.00;;;;;;;;5087268;28;9592;-67
2023/08/21 14:39:19;;;;;;;;;19.75;18.50;;;;;;;;5085512;28;8820;-68
2023/08/21 14:41:45;;;;;;;;;45.67;37.00;;;;;;;;5087582;28;8802;-68
2023/08/21 14:44:10;;;;;;;;;42.33;35.00;;;;;;;;5087700;28;8992;-66
2023/08/21 14:46:36;;;;;;;;;22.33;22.33;;;;;;;;5087605;28;8931;-67
2023/08/21 14:49:01;;;;;;;;;30.00;27.67;;;;;;;;5085966;28;8834;-67
2023/08/21 14:51:27;;;;;;;;;38.67;34.00;;;;;;;;5067454;28;8822;-66
2023/08/21 14:53:52;;;;;;;;;22.00;22.00;;;;;;;;5078273;28;8828;-67
2023/08/21 14:56:17;;;;;;;;;34.33;30.33;;;;;;;;5086052;28;12225;-68
2023/08/21 14:58:44;;;;;;;;;28.67;28.00;;;;;;;;5086534;28;8873;-67
2023/08/21 15:01:12;;;;;;;;;22.75;22.75;;;;;;;;5086343;28;8809;-67
2023/08/21 15:03:37;;;;;;;;;30.50;29.25;;;;;;;;5086739;28;8922;-66
2023/08/21 15:06:03;;;;;;;;;19.33;18.67;;;;;;;;5086529;28;8930;-67
2023/08/21 15:08:28;;;;;;;;;16.67;16.33;;;;;;;;5087111;28;8800;-68
2023/08/21 15:10:54;;;;;;;;;21.33;19.00;;;;;;;;5087581;28;8800;-68
2023/08/21 15:13:19;;;;;;;;;15.67;15.67;;;;;;;;5086884;28;8847;-68
2023/08/21 15:15:44;;;;;;;;;22.67;18.00;;;;;;;;5087442;28;8816;-68
2023/08/21 15:18:10;;;;;;;;;20.67;20.67;;;;;;;;5086240;28;8812;-73
2023/08/21 15:20:35;;;;;;;;;22.33;22.33;;;;;;;;5087536;28;9596;-74
